sensor_id;sensor_type;location;lat;lon;timestamp;temperature;humidity
67249;SHT31;63247;54.300;18.592;2023-03-01T00:01:25;0.65;96.85
67249;SHT31;63247;54.300;18.592;2023-03-01T00:03:52;0.68;96.80
67249;SHT31;63247;54.300;18.592;2023-03-01T00:06:19;0.67;96.54
67249;SHT31;63247;54.300;18.592;2023-03-01T00:08:44;0.57;96.88
67249;SHT31;63247;54.300;18.592;2023-03-01T00:11:14;0.54;97.11
67249;SHT31;63247;54.300;18.592;2023-03-01T00:13:40;0.56;96.99
67249;SHT31;63247;54.300;18.592;2023-03-01T00:16:09;0.56;97.13
67249;SHT31;63247;54.300;18.592;2023-03-01T00:18:34;0.67;97.02
67249;SHT31;63247;54.300;18.592;2023-03-01T00:21:00;0.54;97.31
67249;SHT31;63247;54.300;18.592;2023-03-01T00:23:26;0.61;97.27
67249;SHT31;63247;54.300;18.592;2023-03-01T00:25:51;0.71;97.25
67249;SHT31;63247;54.300;18.592;2023-03-01T00:28:17;0.71;97.44
67249;SHT31;63247;54.300;18.592;2023-03-01T00:30:43;0.68;97.34
67249;SHT31;63247;54.300;18.592;2023-03-01T00:33:08;0.71;97.42
67249;SHT31;63247;54.300;18.592;2023-03-01T00:35:34;0.82;97.37
67249;SHT31;63247;54.300;18.592;2023-03-01T00:38:00;0.78;97.40
67249;SHT31;63247;54.300;18.592;2023-03-01T00:40:27;0.80;97.52
67249;SHT31;63247;54.300;18.592;2023-03-01T00:42:53;0.77;97.45
67249;SHT31;63247;54.300;18.592;2023-03-01T00:45:18;0.81;97.39
67249;SHT31;63247;54.300;18.592;2023-03-01T00:47:44;0.84;97.50
67249;SHT31;63247;54.300;18.592;2023-03-01T00:50:10;0.80;97.54
67249;SHT31;63247;54.300;18.592;2023-03-01T00:52:36;0.85;97.81
67249;SHT31;63247;54.300;18.592;2023-03-01T00:55:02;0.88;97.74
67249;SHT31;63247;54.300;18.592;2023-03-01T00:57:28;0.88;97.88
67249;SHT31;63247;54.300;18.592;2023-03-01T00:59:56;0.93;97.83
67249;SHT31;63247;54.300;18.592;2023-03-01T01:02:22;0.84;97.93
67249;SHT31;63247;54.300;18.592;2023-03-01T01:04:48;0.87;97.93
67249;SHT31;63247;54.300;18.592;2023-03-01T01:07:14;0.96;97.76
67249;SHT31;63247;54.300;18.592;2023-03-01T01:09:39;0.91;97.69
67249;SHT31;63247;54.300;18.592;2023-03-01T01:12:06;0.88;97.64
67249;SHT31;63247;54.300;18.592;2023-03-01T01:14:31;0.85;97.75
67249;SHT31;63247;54.300;18.592;2023-03-01T01:16:57;0.87;97.90
67249;SHT31;63247;54.300;18.592;2023-03-01T01:19:24;0.88;97.96
67249;SHT31;63247;54.300;18.592;2023-03-01T01:21:49;0.84;97.93
67249;SHT31;63247;54.300;18.592;2023-03-01T01:24:16;0.87;97.93
67249;SHT31;63247;54.300;18.592;2023-03-01T01:26:42;0.81;98.05
67249;SHT31;63247;54.300;18.592;2023-03-01T01:29:08;0.87;98.06
67249;SHT31;63247;54.300;18.592;2023-03-01T01:31:36;0.81;98.27
67249;SHT31;63247;54.300;18.592;2023-03-01T01:34:04;0.96;98.31
67249;SHT31;63247;54.300;18.592;2023-03-01T01:36:31;0.87;98.35
67249;SHT31;63247;54.300;18.592;2023-03-01T01:38:57;0.80;98.39
67249;SHT31;63247;54.300;18.592;2023-03-01T01:41:24;0.78;98.46
67249;SHT31;63247;54.300;18.592;2023-03-01T01:46:50;0.80;98.57
67249;SHT31;63247;54.300;18.592;2023-03-01T01:52:37;0.77;98.88
67249;SHT31;63247;54.300;18.592;2023-03-01T01:57:40;0.88;99.18
67249;SHT31;63247;54.300;18.592;2023-03-01T02:00:13;0.85;99.18
67249;SHT31;63247;54.300;18.592;2023-03-01T02:02:40;0.84;99.25
67249;SHT31;63247;54.300;18.592;2023-03-01T02:05:25;0.82;99.11
67249;SHT31;63247;54.300;18.592;2023-03-01T02:07:51;0.77;99.29
67249;SHT31;63247;54.300;18.592;2023-03-01T02:10:17;0.74;99.26
67249;SHT31;63247;54.300;18.592;2023-03-01T02:12:42;0.65;99.54
67249;SHT31;63247;54.300;18.592;2023-03-01T02:15:08;0.68;99.68
67249;SHT31;63247;54.300;18.592;2023-03-01T02:17:35;0.60;99.89
67249;SHT31;63247;54.300;18.592;2023-03-01T02:20:19;0.57;99.99
67249;SHT31;63247;54.300;18.592;2023-03-01T02:22:47;0.54;99.99
67249;SHT31;63247;54.300;18.592;2023-03-01T02:30:13;0.54;99.99
67249;SHT31;63247;54.300;18.592;2023-03-01T02:32:40;0.58;99.99
67249;SHT31;63247;54.300;18.592;2023-03-01T02:35:09;0.44;99.99
67249;SHT31;63247;54.300;18.592;2023-03-01T02:37:36;0.49;99.99
67249;SHT31;63247;54.300;18.592;2023-03-01T02:40:04;0.51;99.99
67249;SHT31;63247;54.300;18.592;2023-03-01T02:42:35;0.51;99.99
67249;SHT31;63247;54.300;18.592;2023-03-01T02:45:02;0.53;99.99
67249;SHT31;63247;54.300;18.592;2023-03-01T02:47:28;0.46;99.99
67249;SHT31;63247;54.300;18.592;2023-03-01T02:49:53;0.43;99.99
67249;SHT31;63247;54.300;18.592;2023-03-01T02:55:13;0.46;99.99
67249;SHT31;63247;54.300;18.592;2023-03-01T02:57:41;0.47;99.99
67249;SHT31;63247;54.300;18.592;2023-03-01T03:00:28;0.49;99.99
67249;SHT31;63247;54.300;18.592;2023-03-01T03:02:56;0.44;99.99
67249;SHT31;63247;54.300;18.592;2023-03-01T03:05:28;0.46;99.99
67249;SHT31;63247;54.300;18.592;2023-03-01T03:07:53;0.43;99.99
67249;SHT31;63247;54.300;18.592;2023-03-01T03:10:22;0.44;99.99
67249;SHT31;63247;54.300;18.592;2023-03-01T03:12:52;0.46;99.99
67249;SHT31;63247;54.300;18.592;2023-03-01T03:15:18;0.46;99.99
67249;SHT31;63247;54.300;18.592;2023-03-01T03:17:44;0.43;99.99
67249;SHT31;63247;54.300;18.592;2023-03-01T03:20:11;0.37;99.99
67249;SHT31;63247;54.300;18.592;2023-03-01T03:22:40;0.41;99.99
67249;SHT31;63247;54.300;18.592;2023-03-01T03:25:09;0.49;99.99
67249;SHT31;63247;54.300;18.592;2023-03-01T03:27:37;0.44;99.99
67249;SHT31;63247;54.300;18.592;2023-03-01T03:30:04;0.41;99.99
67249;SHT31;63247;54.300;18.592;2023-03-01T03:32:37;0.36;99.99
67249;SHT31;63247;54.300;18.592;2023-03-01T03:35:04;0.43;99.99
67249;SHT31;63247;54.300;18.592;2023-03-01T03:37:39;0.36;99.99
67249;SHT31;63247;54.300;18.592;2023-03-01T03:40:23;0.37;99.99
67249;SHT31;63247;54.300;18.592;2023-03-01T03:42:49;0.39;99.99
67249;SHT31;63247;54.300;18.592;2023-03-01T03:45:16;0.30;99.99
67249;SHT31;63247;54.300;18.592;2023-03-01T03:47:42;0.30;99.99
67249;SHT31;63247;54.300;18.592;2023-03-01T03:50:10;0.26;99.99
67249;SHT31;63247;54.300;18.592;2023-03-01T03:52:36;0.34;99.99
67249;SHT31;63247;54.300;18.592;2023-03-01T03:55:01;0.33;99.99
67249;SHT31;63247;54.300;18.592;2023-03-01T03:57:27;0.27;99.99
67249;SHT31;63247;54.300;18.592;2023-03-01T03:59:52;0.26;99.99
67249;SHT31;63247;54.300;18.592;2023-03-01T04:02:18;0.24;99.99
67249;SHT31;63247;54.300;18.592;2023-03-01T04:04:48;0.23;99.99
67249;SHT31;63247;54.300;18.592;2023-03-01T04:07:15;0.22;99.99
67249;SHT31;63247;54.300;18.592;2023-03-01T04:09:42;0.30;99.99
67249;SHT31;63247;54.300;18.592;2023-03-01T04:12:08;0.26;99.99
67249;SHT31;63247;54.300;18.592;2023-03-01T04:14:34;0.16;99.99
67249;SHT31;63247;54.300;18.592;2023-03-01T04:16:59;0.16;99.99
67249;SHT31;63247;54.300;18.592;2023-03-01T04:19:25;0.20;99.99
67249;SHT31;63247;54.300;18.592;2023-03-01T04:21:52;0.13;99.99
67249;SHT31;63247;54.300;18.592;2023-03-01T04:24:18;0.12;99.99
67249;SHT31;63247;54.300;18.592;2023-03-01T04:26:44;0.12;99.99
67249;SHT31;63247;54.300;18.592;2023-03-01T04:29:09;0.06;99.99
67249;SHT31;63247;54.300;18.592;2023-03-01T04:31:35;0.09;99.99
67249;SHT31;63247;54.300;18.592;2023-03-01T04:34:00;0.14;99.99
67249;SHT31;63247;54.300;18.592;2023-03-01T04:36:29;0.16;99.99
67249;SHT31;63247;54.300;18.592;2023-03-01T04:38:55;0.14;99.99
67249;SHT31;63247;54.300;18.592;2023-03-01T04:41:22;0.09;99.99
67249;SHT31;63247;54.300;18.592;2023-03-01T04:43:49;0.03;99.99
67249;SHT31;63247;54.300;18.592;2023-03-01T04:46:17;0.03;99.99
67249;SHT31;63247;54.300;18.592;2023-03-01T04:48:44;0.02;99.99
67249;SHT31;63247;54.300;18.592;2023-03-01T04:51:10;0.01;99.99
67249;SHT31;63247;54.300;18.592;2023-03-01T04:53:39;0.06;99.99
67249;SHT31;63247;54.300;18.592;2023-03-01T04:56:05;0.06;99.99
67249;SHT31;63247;54.300;18.592;2023-03-01T04:58:31;0.06;99.99
67249;SHT31;63247;54.300;18.592;2023-03-01T05:00:57;0.01;99.99
67249;SHT31;63247;54.300;18.592;2023-03-01T05:03:23;-0.04;99.99
67249;SHT31;63247;54.300;18.592;2023-03-01T05:05:50;0.06;99.99
67249;SHT31;63247;54.300;18.592;2023-03-01T05:08:16;-0.02;99.99
67249;SHT31;63247;54.300;18.592;2023-03-01T05:10:49;-0.08;99.99
67249;SHT31;63247;54.300;18.592;2023-03-01T05:13:15;-0.08;99.99
67249;SHT31;63247;54.300;18.592;2023-03-01T05:15:55;0.01;99.99
67249;SHT31;63247;54.300;18.592;2023-03-01T05:18:21;-0.08;99.99
67249;SHT31;63247;54.300;18.592;2023-03-01T05:21:01;0.03;99.99
67249;SHT31;63247;54.300;18.592;2023-03-01T05:23:26;-0.07;99.99
67249;SHT31;63247;54.300;18.592;2023-03-01T05:25:52;-0.08;99.99
67249;SHT31;63247;54.300;18.592;2023-03-01T05:28:19;-0.08;99.99
67249;SHT31;63247;54.300;18.592;2023-03-01T05:30:45;-0.05;99.99
67249;SHT31;63247;54.300;18.592;2023-03-01T05:33:11;-0.01;99.99
67249;SHT31;63247;54.300;18.592;2023-03-01T05:35:41;-0.01;99.99
67249;SHT31;63247;54.300;18.592;2023-03-01T05:38:08;0.05;99.99
67249;SHT31;63247;54.300;18.592;2023-03-01T05:40:34;0.02;99.99
67249;SHT31;63247;54.300;18.592;2023-03-01T05:43:00;0.09;99.99
67249;SHT31;63247;54.300;18.592;2023-03-01T05:45:27;0.05;99.99
67249;SHT31;63247;54.300;18.592;2023-03-01T05:47:53;0.06;99.99
67249;SHT31;63247;54.300;18.592;2023-03-01T05:50:26;0.06;99.99
67249;SHT31;63247;54.300;18.592;2023-03-01T05:52:57;0.03;99.99
67249;SHT31;63247;54.300;18.592;2023-03-01T05:55:23;0.12;99.99
67249;SHT31;63247;54.300;18.592;2023-03-01T05:57:49;0.16;99.99
67249;SHT31;63247;54.300;18.592;2023-03-01T06:00:17;0.17;99.99
67249;SHT31;63247;54.300;18.592;2023-03-01T06:02:43;0.27;99.99
67249;SHT31;63247;54.300;18.592;2023-03-01T06:05:10;0.34;99.99
67249;SHT31;63247;54.300;18.592;2023-03-01T06:07:36;0.40;99.99
67249;SHT31;63247;54.300;18.592;2023-03-01T06:10:03;0.61;99.99
67249;SHT31;63247;54.300;18.592;2023-03-01T06:12:31;0.64;99.99
67249;SHT31;63247;54.300;18.592;2023-03-01T06:14:56;0.84;99.99
67249;SHT31;63247;54.300;18.592;2023-03-01T06:17:22;0.91;99.99
67249;SHT31;63247;54.300;18.592;2023-03-01T06:19:47;1.09;99.99
67249;SHT31;63247;54.300;18.592;2023-03-01T06:22:13;1.42;99.99
67249;SHT31;63247;54.300;18.592;2023-03-01T06:24:38;1.56;99.99
67249;SHT31;63247;54.300;18.592;2023-03-01T06:27:04;1.77;99.78
67249;SHT31;63247;54.300;18.592;2023-03-01T06:29:31;2.11;99.00
67249;SHT31;63247;54.300;18.592;2023-03-01T06:31:56;2.36;98.35
67249;SHT31;63247;54.300;18.592;2023-03-01T06:34:21;3.11;96.48
67249;SHT31;63247;54.300;18.592;2023-03-01T06:36:47;3.33;95.09
67249;SHT31;63247;54.300;18.592;2023-03-01T06:39:13;3.93;93.86
67249;SHT31;63247;54.300;18.592;2023-03-01T06:41:38;4.94;89.89
67249;SHT31;63247;54.300;18.592;2023-03-01T06:44:04;5.14;88.53
67249;SHT31;63247;54.300;18.592;2023-03-01T06:46:30;5.93;85.08
67249;SHT31;63247;54.300;18.592;2023-03-01T06:48:56;6.67;83.18
67249;SHT31;63247;54.300;18.592;2023-03-01T06:51:21;6.09;83.81
67249;SHT31;63247;54.300;18.592;2023-03-01T06:53:47;6.30;83.16
67249;SHT31;63247;54.300;18.592;2023-03-01T06:56:12;5.60;84.05
67249;SHT31;63247;54.300;18.592;2023-03-01T06:58:37;5.49;85.44
67249;SHT31;63247;54.300;18.592;2023-03-01T07:01:07;4.86;86.15
67249;SHT31;63247;54.300;18.592;2023-03-01T07:03:33;4.56;87.10
67249;SHT31;63247;54.300;18.592;2023-03-01T07:05:58;4.52;87.91
67249;SHT31;63247;54.300;18.592;2023-03-01T07:08:24;4.32;87.73
67249;SHT31;63247;54.300;18.592;2023-03-01T07:10:55;5.08;85.98
67249;SHT31;63247;54.300;18.592;2023-03-01T07:13:21;5.07;84.72
67249;SHT31;63247;54.300;18.592;2023-03-01T07:15:46;6.52;80.77
67249;SHT31;63247;54.300;18.592;2023-03-01T07:18:12;6.99;80.04
67249;SHT31;63247;54.300;18.592;2023-03-01T07:20:37;7.60;76.94
67249;SHT31;63247;54.300;18.592;2023-03-01T07:23:02;8.22;75.66
67249;SHT31;63247;54.300;18.592;2023-03-01T07:25:28;8.41;74.47
67249;SHT31;63247;54.300;18.592;2023-03-01T07:27:54;8.44;74.77
67249;SHT31;63247;54.300;18.592;2023-03-01T07:30:20;8.75;73.69
67249;SHT31;63247;54.300;18.592;2023-03-01T07:32:46;9.06;72.12
67249;SHT31;63247;54.300;18.592;2023-03-01T07:35:12;8.50;73.95
67249;SHT31;63247;54.300;18.592;2023-03-01T07:37:38;8.61;74.08
67249;SHT31;63247;54.300;18.592;2023-03-01T07:40:03;8.36;74.44
67249;SHT31;63247;54.300;18.592;2023-03-01T07:42:29;8.92;73.31
67249;SHT31;63247;54.300;18.592;2023-03-01T07:44:54;9.26;71.85
67249;SHT31;63247;54.300;18.592;2023-03-01T07:47:20;9.67;71.08
67249;SHT31;63247;54.300;18.592;2023-03-01T07:49:45;10.28;69.18
67249;SHT31;63247;54.300;18.592;2023-03-01T07:52:11;10.52;68.81
67249;SHT31;63247;54.300;18.592;2023-03-01T07:54:38;11.35;66.46
67249;SHT31;63247;54.300;18.592;2023-03-01T07:57:03;11.77;65.49
67249;SHT31;63247;54.300;18.592;2023-03-01T07:59:29;11.43;65.12
67249;SHT31;63247;54.300;18.592;2023-03-01T08:01:58;10.80;66.85
67249;SHT31;63247;54.300;18.592;2023-03-01T08:04:23;11.15;66.07
67249;SHT31;63247;54.300;18.592;2023-03-01T08:06:54;10.87;65.49
67249;SHT31;63247;54.300;18.592;2023-03-01T08:09:20;12.44;64.09
67249;SHT31;63247;54.300;18.592;2023-03-01T08:11:45;11.11;64.81
67249;SHT31;63247;54.300;18.592;2023-03-01T08:14:10;12.21;64.34
67249;SHT31;63247;54.300;18.592;2023-03-01T08:16:36;12.72;61.60
67249;SHT31;63247;54.300;18.592;2023-03-01T08:19:09;12.06;62.51
67249;SHT31;63247;54.300;18.592;2023-03-01T08:21:35;13.19;61.64
67249;SHT31;63247;54.300;18.592;2023-03-01T08:24:04;12.59;62.83
67249;SHT31;63247;54.300;18.592;2023-03-01T08:26:31;13.33;60.64
67249;SHT31;63247;54.300;18.592;2023-03-01T08:28:57;12.14;61.32
67249;SHT31;63247;54.300;18.592;2023-03-01T08:31:26;13.37;60.14
67249;SHT31;63247;54.300;18.592;2023-03-01T08:33:54;14.17;58.27
67249;SHT31;63247;54.300;18.592;2023-03-01T08:36:28;13.02;60.01
67249;SHT31;63247;54.300;18.592;2023-03-01T08:38:54;13.61;59.31
67249;SHT31;63247;54.300;18.592;2023-03-01T08:41:20;14.02;57.95
67249;SHT31;63247;54.300;18.592;2023-03-01T08:43:46;14.32;57.78
67249;SHT31;63247;54.300;18.592;2023-03-01T08:46:12;14.37;58.06
67249;SHT31;63247;54.300;18.592;2023-03-01T08:48:38;15.32;55.59
67249;SHT31;63247;54.300;18.592;2023-03-01T08:51:11;15.35;55.52
67249;SHT31;63247;54.300;18.592;2023-03-01T08:53:38;14.56;57.25
67249;SHT31;63247;54.300;18.592;2023-03-01T08:56:04;14.32;58.15
67249;SHT31;63247;54.300;18.592;2023-03-01T08:58:30;14.80;57.19
67249;SHT31;63247;54.300;18.592;2023-03-01T09:00:56;16.05;54.87
67249;SHT31;63247;54.300;18.592;2023-03-01T09:03:24;15.31;56.05
67249;SHT31;63247;54.300;18.592;2023-03-01T09:05:51;15.33;56.02
67249;SHT31;63247;54.300;18.592;2023-03-01T09:08:18;15.94;54.24
67249;SHT31;63247;54.300;18.592;2023-03-01T09:10:44;16.08;54.21
67249;SHT31;63247;54.300;18.592;2023-03-01T09:13:09;15.08;55.87
67249;SHT31;63247;54.300;18.592;2023-03-01T09:15:37;14.37;57.87
67249;SHT31;63247;54.300;18.592;2023-03-01T09:18:03;15.87;56.07
67249;SHT31;63247;54.300;18.592;2023-03-01T09:20:30;16.25;53.91
67249;SHT31;63247;54.300;18.592;2023-03-01T09:22:56;16.87;51.79
67249;SHT31;63247;54.300;18.592;2023-03-01T09:25:21;16.49;52.22
67249;SHT31;63247;54.300;18.592;2023-03-01T09:27:51;15.86;53.77
67249;SHT31;63247;54.300;18.592;2023-03-01T09:30:16;15.35;54.87
67249;SHT31;63247;54.300;18.592;2023-03-01T09:32:42;15.54;54.66
67249;SHT31;63247;54.300;18.592;2023-03-01T09:35:10;15.79;54.73
67249;SHT31;63247;54.300;18.592;2023-03-01T09:37:36;16.91;52.45
67249;SHT31;63247;54.300;18.592;2023-03-01T09:40:05;17.81;51.15
67249;SHT31;63247;54.300;18.592;2023-03-01T09:42:35;16.67;52.32
67249;SHT31;63247;54.300;18.592;2023-03-01T09:45:04;16.66;52.44
67249;SHT31;63247;54.300;18.592;2023-03-01T09:47:33;16.38;52.93
67249;SHT31;63247;54.300;18.592;2023-03-01T09:50:41;16.97;51.21
67249;SHT31;63247;54.300;18.592;2023-03-01T09:53:06;16.80;51.53
67249;SHT31;63247;54.300;18.592;2023-03-01T09:56:00;15.25;54.93
67249;SHT31;63247;54.300;18.592;2023-03-01T10:04:45;15.33;55.75
67249;SHT31;63247;54.300;18.592;2023-03-01T10:09:42;16.32;52.71
67249;SHT31;63247;54.300;18.592;2023-03-01T10:12:17;16.75;51.82
67249;SHT31;63247;54.300;18.592;2023-03-01T10:15:03;15.98;53.76
67249;SHT31;63247;54.300;18.592;2023-03-01T10:17:50;15.60;53.67
67249;SHT31;63247;54.300;18.592;2023-03-01T10:22:49;18.17;49.87
67249;SHT31;63247;54.300;18.592;2023-03-01T10:25:44;18.14;49.26
67249;SHT31;63247;54.300;18.592;2023-03-01T10:28:29;18.96;48.10
67249;SHT31;63247;54.300;18.592;2023-03-01T10:30:57;17.97;49.34
67249;SHT31;63247;54.300;18.592;2023-03-01T10:33:27;16.69;51.31
67249;SHT31;63247;54.300;18.592;2023-03-01T10:35:53;15.89;52.89
67249;SHT31;63247;54.300;18.592;2023-03-01T10:38:20;16.63;51.64
67249;SHT31;63247;54.300;18.592;2023-03-01T10:41:04;16.46;51.33
67249;SHT31;63247;54.300;18.592;2023-03-01T10:43:46;15.96;53.48
67249;SHT31;63247;54.300;18.592;2023-03-01T10:46:23;15.40;54.55
67249;SHT31;63247;54.300;18.592;2023-03-01T10:51:39;15.81;52.84
67249;SHT31;63247;54.300;18.592;2023-03-01T10:54:36;14.25;57.89
67249;SHT31;63247;54.300;18.592;2023-03-01T10:57:03;13.61;59.40
67249;SHT31;63247;54.300;18.592;2023-03-01T10:59:31;12.56;61.48
67249;SHT31;63247;54.300;18.592;2023-03-01T11:02:03;12.40;62.36
67249;SHT31;63247;54.300;18.592;2023-03-01T11:04:29;10.97;66.47
67249;SHT31;63247;54.300;18.592;2023-03-01T11:06:59;11.22;66.31
67249;SHT31;63247;54.300;18.592;2023-03-01T11:09:25;10.90;67.13
67249;SHT31;63247;54.300;18.592;2023-03-01T11:11:57;10.39;67.76
67249;SHT31;63247;54.300;18.592;2023-03-01T11:14:25;10.13;68.40
67249;SHT31;63247;54.300;18.592;2023-03-01T11:19:28;9.64;70.77
67249;SHT31;63247;54.300;18.592;2023-03-01T11:22:14;9.77;70.16
67249;SHT31;63247;54.300;18.592;2023-03-01T11:24:52;9.78;70.12
67249;SHT31;63247;54.300;18.592;2023-03-01T11:32:26;9.78;71.60
67249;SHT31;63247;54.300;18.592;2023-03-01T11:34:57;9.26;71.49
67249;SHT31;63247;54.300;18.592;2023-03-01T11:37:41;9.56;71.99
67249;SHT31;63247;54.300;18.592;2023-03-01T11:40:21;9.65;72.33
67249;SHT31;63247;54.300;18.592;2023-03-01T11:45:26;9.35;72.43
67249;SHT31;63247;54.300;18.592;2023-03-01T11:48:11;9.25;73.18
67249;SHT31;63247;54.300;18.592;2023-03-01T11:50:47;9.08;72.88
67249;SHT31;63247;54.300;18.592;2023-03-01T11:53:28;9.27;72.95
67249;SHT31;63247;54.300;18.592;2023-03-01T11:56:03;8.65;74.13
67249;SHT31;63247;54.300;18.592;2023-03-01T12:06:56;8.33;75.16
67249;SHT31;63247;54.300;18.592;2023-03-01T12:18:26;8.51;74.85
67249;SHT31;63247;54.300;18.592;2023-03-01T12:26:29;8.63;75.45
67249;SHT31;63247;54.300;18.592;2023-03-01T12:31:58;8.06;76.48
67249;SHT31;63247;54.300;18.592;2023-03-01T12:37:25;8.47;75.48
67249;SHT31;63247;54.300;18.592;2023-03-01T12:45:54;8.41;76.01
67249;SHT31;63247;54.300;18.592;2023-03-01T12:51:04;8.09;76.69
67249;SHT31;63247;54.300;18.592;2023-03-01T12:53:35;8.00;76.83
67249;SHT31;63247;54.300;18.592;2023-03-01T12:56:11;7.83;77.55
67249;SHT31;63247;54.300;18.592;2023-03-01T13:01:53;7.43;78.57
67249;SHT31;63247;54.300;18.592;2023-03-01T13:07:10;7.38;79.05
67249;SHT31;63247;54.300;18.592;2023-03-01T13:17:56;7.26;79.90
67249;SHT31;63247;54.300;18.592;2023-03-01T13:20:45;7.43;78.88
67249;SHT31;63247;54.300;18.592;2023-03-01T13:33:46;7.16;79.53
67249;SHT31;63247;54.300;18.592;2023-03-01T13:39:02;6.68;81.24
67249;SHT31;63247;54.300;18.592;2023-03-01T13:46:38;6.73;80.46
67249;SHT31;63247;54.300;18.592;2023-03-01T13:49:03;6.75;80.74
67249;SHT31;63247;54.300;18.592;2023-03-01T13:51:29;6.37;81.81
67249;SHT31;63247;54.300;18.592;2023-03-01T13:53:56;6.40;81.88
67249;SHT31;63247;54.300;18.592;2023-03-01T13:56:36;6.68;81.22
67249;SHT31;63247;54.300;18.592;2023-03-01T14:01:36;6.54;81.11
67249;SHT31;63247;54.300;18.592;2023-03-01T14:04:03;6.46;81.58
67249;SHT31;63247;54.300;18.592;2023-03-01T14:06:33;6.30;82.11
67249;SHT31;63247;54.300;18.592;2023-03-01T14:20:38;6.06;83.18
67249;SHT31;63247;54.300;18.592;2023-03-01T14:23:11;5.93;83.28
67249;SHT31;63247;54.300;18.592;2023-03-01T14:25:38;5.96;83.53
67249;SHT31;63247;54.300;18.592;2023-03-01T14:28:29;5.92;84.11
67249;SHT31;63247;54.300;18.592;2023-03-01T14:30:57;6.06;83.44
67249;SHT31;63247;54.300;18.592;2023-03-01T14:36:01;6.10;83.38
67249;SHT31;63247;54.300;18.592;2023-03-01T14:41:08;5.89;84.32
67249;SHT31;63247;54.300;18.592;2023-03-01T14:43:35;5.86;84.50
67249;SHT31;63247;54.300;18.592;2023-03-01T14:46:02;5.86;84.33
67249;SHT31;63247;54.300;18.592;2023-03-01T14:48:28;5.80;84.66
67249;SHT31;63247;54.300;18.592;2023-03-01T14:50:54;5.82;84.74
67249;SHT31;63247;54.300;18.592;2023-03-01T14:53:26;5.65;85.27
67249;SHT31;63247;54.300;18.592;2023-03-01T14:55:59;5.73;85.10
67249;SHT31;63247;54.300;18.592;2023-03-01T14:58:32;5.63;85.21
67249;SHT31;63247;54.300;18.592;2023-03-01T15:01:00;5.59;85.67
67249;SHT31;63247;54.300;18.592;2023-03-01T15:03:28;5.48;86.10
67249;SHT31;63247;54.300;18.592;2023-03-01T15:05:56;5.44;86.38
67249;SHT31;63247;54.300;18.592;2023-03-01T15:08:26;5.30;86.89
67249;SHT31;63247;54.300;18.592;2023-03-01T15:10:59;5.31;86.89
67249;SHT31;63247;54.300;18.592;2023-03-01T15:13:34;5.27;86.80
67249;SHT31;63247;54.300;18.592;2023-03-01T15:16:19;5.34;86.75
67249;SHT31;63247;54.300;18.592;2023-03-01T15:18:53;5.30;87.12
67249;SHT31;63247;54.300;18.592;2023-03-01T15:21:25;5.30;87.29
67249;SHT31;63247;54.300;18.592;2023-03-01T15:24:16;5.20;87.32
67249;SHT31;63247;54.300;18.592;2023-03-01T15:26:52;5.03;87.77
67249;SHT31;63247;54.300;18.592;2023-03-01T15:29:30;5.04;87.86
67249;SHT31;63247;54.300;18.592;2023-03-01T15:32:04;4.86;88.51
67249;SHT31;63247;54.300;18.592;2023-03-01T15:34:40;4.86;88.51
67249;SHT31;63247;54.300;18.592;2023-03-01T15:37:32;4.70;89.04
67249;SHT31;63247;54.300;18.592;2023-03-01T15:39:53;4.51;89.86
67249;SHT31;63247;54.300;18.592;2023-03-01T15:47:41;4.31;91.00
67249;SHT31;63247;54.300;18.592;2023-03-01T15:50:42;4.17;91.24
67249;SHT31;63247;54.300;18.592;2023-03-01T15:53:13;4.04;91.67
67249;SHT31;63247;54.300;18.592;2023-03-01T15:55:40;4.11;91.67
67249;SHT31;63247;54.300;18.592;2023-03-01T15:58:13;4.01;92.17
67249;SHT31;63247;54.300;18.592;2023-03-01T16:00:39;3.91;92.46
67249;SHT31;63247;54.300;18.592;2023-03-01T16:03:06;3.80;92.77
67249;SHT31;63247;54.300;18.592;2023-03-01T16:05:35;3.70;92.96
67249;SHT31;63247;54.300;18.592;2023-03-01T16:08:02;3.64;93.28
67249;SHT31;63247;54.300;18.592;2023-03-01T16:10:28;3.53;93.51
67249;SHT31;63247;54.300;18.592;2023-03-01T16:12:54;3.42;94.12
67249;SHT31;63247;54.300;18.592;2023-03-01T16:15:25;3.43;94.13
67249;SHT31;63247;54.300;18.592;2023-03-01T16:17:51;3.26;94.42
67249;SHT31;63247;54.300;18.592;2023-03-01T16:20:17;3.25;94.66
67249;SHT31;63247;54.300;18.592;2023-03-01T16:22:44;3.25;94.72
67249;SHT31;63247;54.300;18.592;2023-03-01T16:25:11;3.16;94.91
67249;SHT31;63247;54.300;18.592;2023-03-01T16:27:36;3.14;95.02
67249;SHT31;63247;54.300;18.592;2023-03-01T16:30:03;3.12;94.96
67249;SHT31;63247;54.300;18.592;2023-03-01T16:32:29;3.11;95.08
67249;SHT31;63247;54.300;18.592;2023-03-01T16:34:55;3.11;95.42
67249;SHT31;63247;54.300;18.592;2023-03-01T16:37:20;3.22;95.53
67249;SHT31;63247;54.300;18.592;2023-03-01T16:39:47;3.16;95.44
67249;SHT31;63247;54.300;18.592;2023-03-01T16:42:16;3.26;95.41
67249;SHT31;63247;54.300;18.592;2023-03-01T16:44:42;3.29;95.25
67249;SHT31;63247;54.300;18.592;2023-03-01T16:47:07;3.35;94.93
67249;SHT31;63247;54.300;18.592;2023-03-01T16:49:33;3.32;95.15
67249;SHT31;63247;54.300;18.592;2023-03-01T16:51:58;3.29;95.37
67249;SHT31;63247;54.300;18.592;2023-03-01T16:54:25;3.33;95.32
67249;SHT31;63247;54.300;18.592;2023-03-01T16:56:50;3.35;95.08
67249;SHT31;63247;54.300;18.592;2023-03-01T16:59:16;3.42;95.19
67249;SHT31;63247;54.300;18.592;2023-03-01T17:01:43;3.56;94.66
67249;SHT31;63247;54.300;18.592;2023-03-01T17:04:12;3.46;94.70
67249;SHT31;63247;54.300;18.592;2023-03-01T17:06:38;3.35;95.02
67249;SHT31;63247;54.300;18.592;2023-03-01T17:09:03;3.28;95.18
67249;SHT31;63247;54.300;18.592;2023-03-01T17:11:29;3.24;95.44
67249;SHT31;63247;54.300;18.592;2023-03-01T17:13:55;3.24;95.52
67249;SHT31;63247;54.300;18.592;2023-03-01T17:16:21;3.32;95.32
67249;SHT31;63247;54.300;18.592;2023-03-01T17:18:47;3.31;95.25
67249;SHT31;63247;54.300;18.592;2023-03-01T17:21:13;3.32;95.33
67249;SHT31;63247;54.300;18.592;2023-03-01T17:23:42;3.31;95.51
67249;SHT31;63247;54.300;18.592;2023-03-01T17:26:08;3.60;94.22
67249;SHT31;63247;54.300;18.592;2023-03-01T17:28:35;3.60;94.51
67249;SHT31;63247;54.300;18.592;2023-03-01T17:31:02;3.64;93.99
67249;SHT31;63247;54.300;18.592;2023-03-01T17:33:28;3.49;94.48
67249;SHT31;63247;54.300;18.592;2023-03-01T17:35:58;3.55;94.54
67249;SHT31;63247;54.300;18.592;2023-03-01T17:38:24;3.76;94.11
67249;SHT31;63247;54.300;18.592;2023-03-01T17:40:50;3.52;94.30
67249;SHT31;63247;54.300;18.592;2023-03-01T17:43:16;3.48;94.56
67249;SHT31;63247;54.300;18.592;2023-03-01T17:45:44;3.43;94.83
67249;SHT31;63247;54.300;18.592;2023-03-01T17:48:13;3.36;94.96
67249;SHT31;63247;54.300;18.592;2023-03-01T17:50:39;3.38;95.19
67249;SHT31;63247;54.300;18.592;2023-03-01T17:53:06;3.36;95.15